Loretto, Michigan
Current Conditions -  °F | °C
As of 5:54 PM on Friday 24 Oct 2014 (Local Time) from KIMT Reporting Station
Broken Clouds Broken Clouds  
Wind Chill: 56°   Ceiling: 5500
Heat Index: 56°   Visibility: 10mi
Dew Point: 48°   Wind: 7mph
Humidity: 75%   Direction: 150°SSE
Pressure: 29.84"   Gusts: NA
Location:  45.78°N, 87.81°W
Report Text: KIMT 242254Z AUTO 15006KT 10SM BKN055 13/09 A2984 RMK AO2 SLP112 T01330089
Loading
Personal Weather Stations






























Interactive Weather Map
Tropical Storm Tracking
New forecast layout! Learn more

10-Day Weather Forecast

Advertisements
Track Severe Weather on mobile